createdAt,value
2019-01-09T00:00:00.000Z,97359
2019-01-09T00:05:00.000Z,97355
2019-01-09T00:10:00.000Z,97354
2019-01-09T00:15:00.000Z,97367
2019-01-09T00:20:00.000Z,97337
2019-01-09T00:25:00.000Z,97337
2019-01-09T00:30:00.000Z,97366
2019-01-09T00:35:00.000Z,97352
2019-01-09T00:40:00.000Z,97370
2019-01-09T00:45:00.000Z,97355
2019-01-09T00:50:00.000Z,97362
2019-01-09T00:55:00.000Z,97357
2019-01-09T01:00:00.000Z,97359
2019-01-09T01:05:00.000Z,97384
2019-01-09T01:10:00.000Z,97370
2019-01-09T01:15:00.000Z,97373
2019-01-09T01:20:00.000Z,97360
2019-01-09T01:25:00.000Z,97356
2019-01-09T01:30:00.000Z,97366
2019-01-09T01:35:00.000Z,97382
2019-01-09T01:40:00.000Z,97374
2019-01-09T01:45:00.000Z,97371
2019-01-09T01:50:00.000Z,97370
2019-01-09T01:55:00.000Z,97364
2019-01-09T02:00:00.000Z,97360
2019-01-09T02:05:00.000Z,97368
2019-01-09T02:11:00.000Z,97363
2019-01-09T02:16:00.000Z,97353
2019-01-09T02:21:00.000Z,97359
2019-01-09T02:26:00.000Z,97337
2019-01-09T02:31:00.000Z,97363
2019-01-09T02:36:00.000Z,97352
2019-01-09T02:41:00.000Z,97344
2019-01-09T02:46:00.000Z,97366
2019-01-09T02:51:00.000Z,97359
2019-01-09T02:56:00.000Z,97372
2019-01-09T03:01:00.000Z,97366
2019-01-09T03:06:00.000Z,97377
2019-01-09T03:11:00.000Z,97371
2019-01-09T03:16:00.000Z,97376
2019-01-09T03:21:00.000Z,97372
2019-01-09T03:26:00.000Z,97376
2019-01-09T03:31:00.000Z,97364
2019-01-09T03:36:00.000Z,97368
2019-01-09T03:41:00.000Z,97369
2019-01-09T03:46:00.000Z,97364
2019-01-09T03:51:00.000Z,97373
2019-01-09T03:56:00.000Z,97358
2019-01-09T04:01:00.000Z,97355
2019-01-09T04:06:00.000Z,97340
2019-01-09T04:11:00.000Z,97351
2019-01-09T04:16:00.000Z,97332
2019-01-09T04:21:00.000Z,97343
2019-01-09T04:26:00.000Z,97336
2019-01-09T04:31:00.000Z,97333
2019-01-09T04:36:00.000Z,97322
2019-01-09T04:41:00.000Z,97321
2019-01-09T04:46:00.000Z,97332
2019-01-09T04:51:00.000Z,97324
2019-01-09T04:56:00.000Z,97337
2019-01-09T05:01:00.000Z,97327
2019-01-09T05:06:00.000Z,97329
2019-01-09T05:12:00.000Z,97325
2019-01-09T05:17:00.000Z,97326
2019-01-09T05:22:00.000Z,97357
2019-01-09T05:27:00.000Z,97353
2019-01-09T05:32:00.000Z,97354
2019-01-09T05:37:00.000Z,97351
2019-01-09T05:42:00.000Z,97350
2019-01-09T05:47:00.000Z,97347
2019-01-09T05:52:00.000Z,97349
2019-01-09T05:57:00.000Z,97353
2019-01-09T06:02:00.000Z,97359
2019-01-09T06:07:00.000Z,97359
2019-01-09T06:12:00.000Z,97354
2019-01-09T06:17:00.000Z,97356
2019-01-09T06:22:00.000Z,97360
2019-01-09T06:27:00.000Z,97368
2019-01-09T06:32:00.000Z,97370
2019-01-09T06:37:00.000Z,97373
2019-01-09T06:42:00.000Z,97368
2019-01-09T06:47:00.000Z,97371
2019-01-09T06:52:00.000Z,97379
2019-01-09T06:57:00.000Z,97389
2019-01-09T07:02:00.000Z,97384
2019-01-09T07:07:00.000Z,97392
2019-01-09T07:12:00.000Z,97399
2019-01-09T07:17:00.000Z,97399
2019-01-09T07:22:00.000Z,97394
2019-01-09T07:27:00.000Z,97399
2019-01-09T07:32:00.000Z,97408
2019-01-09T07:37:00.000Z,97410
2019-01-09T07:42:00.000Z,97421
2019-01-09T07:47:00.000Z,97426
2019-01-09T07:52:00.000Z,97425
2019-01-09T07:57:00.000Z,97431
2019-01-09T08:02:00.000Z,97430
2019-01-09T08:07:00.000Z,97426
2019-01-09T08:12:00.000Z,97424
2019-01-09T08:17:00.000Z,97425
2019-01-09T08:22:00.000Z,97428
2019-01-09T08:27:00.000Z,97420
2019-01-09T08:32:00.000Z,97429
2019-01-09T08:37:00.000Z,97423
2019-01-09T08:43:00.000Z,97433
2019-01-09T08:48:00.000Z,97423
2019-01-09T08:53:00.000Z,97435
2019-01-09T08:58:00.000Z,97435
2019-01-09T09:03:00.000Z,97436
2019-01-09T09:08:00.000Z,97438
2019-01-09T09:13:00.000Z,97448
2019-01-09T09:18:00.000Z,97451
2019-01-09T09:23:00.000Z,97455
2019-01-09T09:28:00.000Z,97452
2019-01-09T09:33:00.000Z,97460
2019-01-09T09:38:00.000Z,97460
2019-01-09T09:43:00.000Z,97450
2019-01-09T09:48:00.000Z,97459
2019-01-09T09:53:00.000Z,97458
2019-01-09T09:58:00.000Z,97451
2019-01-09T10:03:00.000Z,97454
2019-01-09T10:08:00.000Z,97453
2019-01-09T10:13:00.000Z,97443
2019-01-09T10:18:00.000Z,97459
2019-01-09T10:23:00.000Z,97455
2019-01-09T10:28:00.000Z,97461
2019-01-09T10:33:00.000Z,97463
2019-01-09T10:38:00.000Z,97473
2019-01-09T10:43:00.000Z,97458
2019-01-09T10:48:00.000Z,97464
2019-01-09T10:53:00.000Z,97457
2019-01-09T10:58:00.000Z,97463
2019-01-09T11:03:00.000Z,97462
2019-01-09T11:08:00.000Z,97459
2019-01-09T11:13:00.000Z,97459
2019-01-09T11:18:00.000Z,97451
2019-01-09T11:23:00.000Z,97444
2019-01-09T11:28:00.000Z,97458
2019-01-09T11:33:00.000Z,97445
2019-01-09T11:38:00.000Z,97449
2019-01-09T11:43:00.000Z,97447
2019-01-09T11:48:00.000Z,97454
2019-01-09T11:53:00.000Z,97448
2019-01-09T11:58:00.000Z,97447
2019-01-09T12:03:00.000Z,97448
2019-01-09T12:09:00.000Z,97447
2019-01-09T12:14:00.000Z,97446
2019-01-09T12:19:00.000Z,97456
2019-01-09T12:24:00.000Z,97455
2019-01-09T12:29:00.000Z,97445
2019-01-09T12:34:00.000Z,97459
2019-01-09T12:39:00.000Z,97458
2019-01-09T12:44:00.000Z,97456
2019-01-09T12:49:00.000Z,97467
2019-01-09T12:54:00.000Z,97466
2019-01-09T12:59:00.000Z,97466
2019-01-09T13:04:00.000Z,97462
2019-01-09T13:09:00.000Z,97479
2019-01-09T13:14:00.000Z,97476
2019-01-09T13:19:00.000Z,97491
2019-01-09T13:24:00.000Z,97489
2019-01-09T13:29:00.000Z,97495
2019-01-09T13:34:00.000Z,97510
2019-01-09T13:39:00.000Z,97503
2019-01-09T13:44:00.000Z,97499
2019-01-09T13:49:00.000Z,97500
2019-01-09T13:54:00.000Z,97504
2019-01-09T13:59:00.000Z,97503
2019-01-09T14:04:00.000Z,97512
2019-01-09T14:09:00.000Z,97509
2019-01-09T14:14:00.000Z,97516
2019-01-09T14:19:00.000Z,97526
2019-01-09T14:24:00.000Z,97524
2019-01-09T14:29:00.000Z,97543
2019-01-09T14:34:00.000Z,97531
2019-01-09T14:39:00.000Z,97538
2019-01-09T14:44:00.000Z,97539
2019-01-09T14:49:00.000Z,97533
2019-01-09T14:54:00.000Z,97533
2019-01-09T14:59:00.000Z,97540
2019-01-09T15:04:00.000Z,97543
2019-01-09T15:09:00.000Z,97536
2019-01-09T15:14:00.000Z,97529
2019-01-09T15:19:00.000Z,97544
2019-01-09T15:24:00.000Z,97547
2019-01-09T15:29:00.000Z,97555
2019-01-09T15:35:00.000Z,97552
2019-01-09T15:40:00.000Z,97561
2019-01-09T15:45:00.000Z,97571
2019-01-09T15:50:00.000Z,97577
2019-01-09T15:55:00.000Z,97579
2019-01-09T16:00:00.000Z,97578
2019-01-09T16:05:00.000Z,97592
2019-01-09T16:10:00.000Z,97597
2019-01-09T16:15:00.000Z,97601
2019-01-09T16:20:00.000Z,97597
2019-01-09T16:25:00.000Z,97598
2019-01-09T16:30:00.000Z,97607
2019-01-09T16:35:00.000Z,97611
2019-01-09T16:40:00.000Z,97607
2019-01-09T16:45:00.000Z,97621
2019-01-09T16:50:00.000Z,97618
2019-01-09T16:55:00.000Z,97628
2019-01-09T17:00:00.000Z,97629
2019-01-09T17:05:00.000Z,97627
2019-01-09T17:10:00.000Z,97632
2019-01-09T17:15:00.000Z,97615
2019-01-09T17:20:00.000Z,97628
2019-01-09T17:25:00.000Z,97625
2019-01-09T17:30:00.000Z,97629
2019-01-09T17:35:00.000Z,97639
2019-01-09T17:40:00.000Z,97635
2019-01-09T17:45:00.000Z,97639
2019-01-09T17:50:00.000Z,97644
2019-01-09T17:55:00.000Z,97649
2019-01-09T18:00:00.000Z,97657
2019-01-09T18:05:00.000Z,97660
2019-01-09T18:10:00.000Z,97667
2019-01-09T18:15:00.000Z,97665
2019-01-09T18:20:00.000Z,97673
2019-01-09T18:25:00.000Z,97673
2019-01-09T18:30:00.000Z,97679
2019-01-09T18:36:00.000Z,97687
2019-01-09T18:41:00.000Z,97690
2019-01-09T18:46:00.000Z,97690
2019-01-09T18:51:00.000Z,97687
2019-01-09T18:56:00.000Z,97694
2019-01-09T19:01:00.000Z,97702
2019-01-09T19:06:00.000Z,97723
2019-01-09T19:11:00.000Z,97729
2019-01-09T19:16:00.000Z,97725
2019-01-09T19:21:00.000Z,97727
2019-01-09T19:26:00.000Z,97727
2019-01-09T19:31:00.000Z,97726
2019-01-09T19:36:00.000Z,97738
2019-01-09T19:41:00.000Z,97743
2019-01-09T19:46:00.000Z,97745
2019-01-09T19:51:00.000Z,97753
2019-01-09T19:56:00.000Z,97755
2019-01-09T20:01:00.000Z,97758
2019-01-09T20:06:00.000Z,97752
2019-01-09T20:11:00.000Z,97776
2019-01-09T20:16:00.000Z,97768
2019-01-09T20:21:00.000Z,97757
2019-01-09T20:26:00.000Z,97763
2019-01-09T20:31:00.000Z,97758
2019-01-09T20:36:00.000Z,97778
2019-01-09T20:41:00.000Z,97778
2019-01-09T20:46:00.000Z,97784
2019-01-09T20:51:00.000Z,97791
2019-01-09T20:56:00.000Z,97787
2019-01-09T21:01:00.000Z,97796
2019-01-09T21:06:00.000Z,97798
2019-01-09T21:11:00.000Z,97816
2019-01-09T21:16:00.000Z,97808
2019-01-09T21:21:00.000Z,97818
2019-01-09T21:26:00.000Z,97829
2019-01-09T21:31:00.000Z,97833
2019-01-09T21:36:00.000Z,97841
2019-01-09T21:41:00.000Z,97841
2019-01-09T21:46:00.000Z,97832
2019-01-09T21:51:00.000Z,97842
2019-01-09T21:56:00.000Z,97837
2019-01-09T22:01:00.000Z,97849
2019-01-09T22:06:00.000Z,97860
2019-01-09T22:11:00.000Z,97859
2019-01-09T22:17:00.000Z,97870
2019-01-09T22:22:00.000Z,97864
2019-01-09T22:27:00.000Z,97862
2019-01-09T22:32:00.000Z,97870
2019-01-09T22:37:00.000Z,97873
2019-01-09T22:42:00.000Z,97873
2019-01-09T22:47:00.000Z,97875
2019-01-09T22:52:00.000Z,97873
2019-01-09T22:57:00.000Z,97885
2019-01-09T23:02:00.000Z,97886
2019-01-09T23:07:00.000Z,97883
2019-01-09T23:12:00.000Z,97888
2019-01-09T23:17:00.000Z,97889
2019-01-09T23:22:00.000Z,97896
2019-01-09T23:27:00.000Z,97894
2019-01-09T23:32:00.000Z,97911
2019-01-09T23:37:00.000Z,97913
2019-01-09T23:42:00.000Z,97922
2019-01-09T23:47:00.000Z,97925
2019-01-09T23:52:00.000Z,97926
2019-01-09T23:57:00.000Z,97920
